createdAt,value
2022-11-08T00:02:20.669Z,100099.84
2022-11-08T00:04:47.143Z,100095.97
2022-11-08T00:07:32.473Z,100097.91
2022-11-08T00:10:17.356Z,100092.66
2022-11-08T00:13:02.048Z,100096.31
2022-11-08T00:15:29.348Z,100099.78
2022-11-08T00:17:56.194Z,100096.09
2022-11-08T00:20:22.534Z,100088.47
2022-11-08T00:22:48.865Z,100088.50
2022-11-08T00:25:15.271Z,100093.97
2022-11-08T00:27:41.618Z,100092.41
2022-11-08T00:30:08.701Z,100096.94
2022-11-08T00:32:35.093Z,100104.72
2022-11-08T00:35:01.452Z,100105.06
2022-11-08T00:37:27.814Z,100099.34
2022-11-08T00:39:54.192Z,100103.78
2022-11-08T00:42:20.542Z,100101.66
2022-11-08T00:44:46.967Z,100098.25
2022-11-08T00:47:13.470Z,100102.03
2022-11-08T00:49:39.838Z,100102.94
2022-11-08T00:52:06.211Z,100108.28
2022-11-08T00:54:32.614Z,100101.25
2022-11-08T00:56:59.181Z,100094.41
2022-11-08T00:59:25.589Z,100104.06
2022-11-08T01:01:52.223Z,100080.59
2022-11-08T01:04:19.769Z,100085.84
2022-11-08T01:06:46.524Z,100077.16
2022-11-08T01:09:13.144Z,100080.47
2022-11-08T01:11:45.111Z,100068.91
2022-11-08T01:14:12.095Z,100072.81
2022-11-08T01:16:40.165Z,100076.66
2022-11-08T01:19:06.595Z,100072.31
2022-11-08T01:21:33.185Z,100070.03
2022-11-08T01:23:59.730Z,100073.66
2022-11-08T01:26:31.868Z,100072.13
2022-11-08T01:28:58.948Z,100066.97
2022-11-08T01:31:28.879Z,100065.22
2022-11-08T01:33:56.329Z,100062.06
2022-11-08T01:36:25.858Z,100059.13
2022-11-08T01:38:53.509Z,100066.72
2022-11-08T01:41:21.767Z,100064.13
2022-11-08T01:44:00.922Z,100053.25
2022-11-08T01:46:39.125Z,100050.41
2022-11-08T01:49:20.543Z,100045.19
2022-11-08T01:52:05.930Z,100050.38
2022-11-08T01:54:56.829Z,100053.03
2022-11-08T01:58:09.508Z,100059.16
2022-11-08T02:00:38.540Z,100064.41
2022-11-08T02:03:08.174Z,100064.34
2022-11-08T02:05:34.667Z,100067.19
2022-11-08T02:08:11.777Z,100054.91
2022-11-08T02:10:40.807Z,100049.63
2022-11-08T02:13:14.232Z,100045.22
2022-11-08T02:15:41.836Z,100048.78
2022-11-08T02:18:08.496Z,100048.69
2022-11-08T02:20:35.361Z,100045.06
2022-11-08T02:23:21.637Z,100039.19
2022-11-08T02:25:48.001Z,100033.75
2022-11-08T02:28:14.421Z,100033.72
2022-11-08T02:30:40.859Z,100026.75
2022-11-08T02:33:22.405Z,100027.03
2022-11-08T02:35:52.053Z,100023.94
2022-11-08T02:38:19.408Z,100024.53
2022-11-08T02:40:54.723Z,100032.22
2022-11-08T02:43:22.162Z,100028.88
2022-11-08T02:45:49.575Z,100013.50
2022-11-08T02:48:17.131Z,100018.75
2022-11-08T02:50:43.919Z,100011.72
2022-11-08T02:53:11.030Z,100009.69
2022-11-08T02:55:37.659Z,100010.03
2022-11-08T02:58:04.945Z,100015.78
2022-11-08T03:00:31.534Z,100010.66
2022-11-08T03:02:58.640Z,100004.13
2022-11-08T03:05:26.163Z,100005.69
2022-11-08T03:07:54.261Z,99992.13
2022-11-08T03:10:21.375Z,99981.56
2022-11-08T03:12:47.788Z,99974.22
2022-11-08T03:15:14.927Z,99988.16
2022-11-08T03:17:41.294Z,99988.28
2022-11-08T03:20:08.184Z,99979.75
2022-11-08T03:22:34.529Z,99982.94
2022-11-08T03:25:00.904Z,99984.84
2022-11-08T03:27:27.238Z,99982.84
2022-11-08T03:29:53.587Z,99990.00
2022-11-08T03:32:19.977Z,99983.97
2022-11-08T03:34:46.312Z,99984.50
2022-11-08T03:37:12.705Z,99992.63
2022-11-08T03:39:39.067Z,99985.69
2022-11-08T03:42:06.273Z,99982.03
2022-11-08T03:44:32.848Z,99982.00
2022-11-08T03:47:00.307Z,99959.94
2022-11-08T03:49:27.192Z,99956.78
2022-11-08T03:51:54.590Z,99951.81
2022-11-08T03:54:20.977Z,99965.72
2022-11-08T03:56:47.559Z,99954.16
2022-11-08T03:59:13.954Z,99958.91
2022-11-08T04:01:40.629Z,99954.19
2022-11-08T04:04:07.383Z,99966.00
2022-11-08T04:06:33.778Z,99965.84
2022-11-08T04:09:00.178Z,99966.97
2022-11-08T04:11:45.353Z,99951.56
2022-11-08T04:14:30.665Z,99960.13
2022-11-08T04:16:57.004Z,99958.38
2022-11-08T04:19:41.759Z,99955.03
2022-11-08T04:22:10.872Z,99950.88
2022-11-08T04:24:37.355Z,99957.50
2022-11-08T04:27:03.914Z,99950.78
2022-11-08T04:29:30.624Z,99947.16
2022-11-08T04:31:57.100Z,99942.81
2022-11-08T04:34:23.464Z,99942.72
2022-11-08T04:36:49.905Z,99949.91
2022-11-08T04:39:16.366Z,99943.94
2022-11-08T04:41:46.935Z,99940.53
2022-11-08T04:44:15.507Z,99929.72
2022-11-08T04:46:41.865Z,99932.78
2022-11-08T04:49:08.355Z,99929.19
2022-11-08T04:51:34.780Z,99918.34
2022-11-08T04:54:02.623Z,99921.63
2022-11-08T04:56:30.615Z,99919.81
2022-11-08T04:58:59.429Z,99909.69
2022-11-08T05:01:28.125Z,99908.63
2022-11-08T05:03:55.052Z,99913.06
2022-11-08T05:06:26.845Z,99905.25
2022-11-08T05:08:55.409Z,99905.06
2022-11-08T05:11:23.722Z,99906.31
2022-11-08T05:13:51.080Z,99894.41
2022-11-08T05:16:23.781Z,99912.38
2022-11-08T05:18:51.383Z,99919.53
2022-11-08T05:21:38.895Z,99911.63
2022-11-08T05:24:07.449Z,99904.47
2022-11-08T05:26:35.445Z,99904.88
2022-11-08T05:29:02.017Z,99899.56
2022-11-08T05:31:28.365Z,99892.41
2022-11-08T05:33:54.776Z,99894.41
2022-11-08T05:36:21.222Z,99890.19
2022-11-08T05:38:47.879Z,99880.78
2022-11-08T05:41:17.169Z,99897.06
2022-11-08T05:43:46.305Z,99899.28
2022-11-08T05:46:12.692Z,99888.25
2022-11-08T05:48:39.206Z,99892.03
2022-11-08T05:51:05.665Z,99894.56
2022-11-08T05:53:32.554Z,99878.63
2022-11-08T05:56:00.573Z,99872.16
2022-11-08T05:58:27.559Z,99854.19
2022-11-08T06:01:05.756Z,99852.91
2022-11-08T06:03:33.129Z,99855.88
2022-11-08T06:06:11.640Z,99853.16
2022-11-08T06:08:39.233Z,99849.69
2022-11-08T06:11:08.131Z,99850.44
2022-11-08T06:13:35.362Z,99854.63
2022-11-08T06:16:10.914Z,99862.50
2022-11-08T06:18:38.550Z,99872.00
2022-11-08T06:21:07.377Z,99883.44
2022-11-08T06:23:34.033Z,99883.34
2022-11-08T06:26:00.729Z,99900.09
2022-11-08T06:28:27.438Z,99887.75
2022-11-08T06:30:54.136Z,99887.16
2022-11-08T06:33:21.425Z,99890.41
2022-11-08T06:35:48.046Z,99883.38
2022-11-08T06:38:15.026Z,99881.91
2022-11-08T06:40:41.445Z,99871.72
2022-11-08T06:43:07.860Z,99865.72
2022-11-08T06:45:34.210Z,99875.00
2022-11-08T06:48:02.587Z,99881.84
2022-11-08T06:50:31.004Z,99886.28
2022-11-08T06:53:05.598Z,99889.75
2022-11-08T06:55:32.622Z,99887.97
2022-11-08T06:57:59.177Z,99878.88
2022-11-08T07:00:26.271Z,99892.78
2022-11-08T07:02:53.961Z,99890.88
2022-11-08T07:05:21.380Z,99897.31
2022-11-08T07:07:51.966Z,99892.03
2022-11-08T07:10:20.293Z,99880.13
2022-11-08T07:12:47.129Z,99891.91
2022-11-08T07:15:14.263Z,99894.78
2022-11-08T07:17:40.708Z,99897.59
2022-11-08T07:20:08.364Z,99906.25
2022-11-08T07:22:35.043Z,99899.09
2022-11-08T07:25:01.596Z,99902.94
2022-11-08T07:27:28.429Z,99904.66
2022-11-08T07:29:54.771Z,99900.50
2022-11-08T07:32:21.110Z,99907.34
2022-11-08T07:34:47.486Z,99914.00
2022-11-08T07:37:13.852Z,99918.31
2022-11-08T07:39:40.179Z,99925.03
2022-11-08T07:42:06.522Z,99930.38
2022-11-08T07:44:32.887Z,99926.09
2022-11-08T07:46:59.220Z,99936.50
2022-11-08T07:49:25.571Z,99923.19
2022-11-08T07:51:52.038Z,99933.28
2022-11-08T07:54:18.463Z,99938.03
2022-11-08T07:56:44.878Z,99940.91
2022-11-08T07:59:11.262Z,99931.38
2022-11-08T08:01:37.699Z,99933.22
2022-11-08T08:04:04.656Z,99935.84
2022-11-08T08:06:31.018Z,99938.53
2022-11-08T08:08:57.434Z,99922.25
2022-11-08T08:11:23.761Z,99917.34
2022-11-08T08:13:50.208Z,99916.78
2022-11-08T08:16:16.595Z,99909.63
2022-11-08T08:18:42.974Z,99910.34
2022-11-08T08:21:09.355Z,99908.88
2022-11-08T08:23:35.697Z,99913.75
2022-11-08T08:26:03.151Z,99910.03
2022-11-08T08:28:29.569Z,99917.06
2022-11-08T08:30:55.951Z,99921.41
2022-11-08T08:33:30.053Z,99932.16
2022-11-08T08:35:56.845Z,99925.03
2022-11-08T08:38:23.400Z,99930.94
2022-11-08T08:40:50.575Z,99919.44
2022-11-08T08:43:17.370Z,99916.19
2022-11-08T08:45:44.065Z,99932.66
2022-11-08T08:48:10.405Z,99928.00
2022-11-08T08:50:36.769Z,99930.34
2022-11-08T08:53:05.677Z,99929.91
2022-11-08T08:55:32.668Z,99925.81
2022-11-08T08:57:59.046Z,99927.44
2022-11-08T09:03:12.608Z,99920.94
2022-11-08T09:05:43.954Z,99910.59
2022-11-08T09:08:11.263Z,99905.91
2022-11-08T09:10:38.010Z,99910.47
2022-11-08T09:13:04.524Z,99904.41
2022-11-08T09:15:30.945Z,99917.59
2022-11-08T09:17:57.960Z,99918.47
2022-11-08T09:20:25.587Z,99906.25
2022-11-08T09:22:52.046Z,99902.44
2022-11-08T09:25:18.920Z,99902.25
2022-11-08T09:27:45.280Z,99896.38
2022-11-08T09:30:11.694Z,99904.19
2022-11-08T09:33:03.053Z,99916.06
2022-11-08T09:35:24.431Z,99911.16
2022-11-08T09:37:53.285Z,99912.75
2022-11-08T09:40:30.452Z,99901.13
2022-11-08T09:43:32.808Z,99902.00
2022-11-08T09:45:59.369Z,99890.53
2022-11-08T09:48:28.699Z,99899.47
2022-11-08T09:50:59.059Z,99906.84
2022-11-08T09:53:49.718Z,99902.94
2022-11-08T09:56:25.248Z,99899.03
2022-11-08T09:59:03.134Z,99897.50
2022-11-08T10:01:34.821Z,99896.47
2022-11-08T10:04:23.595Z,99897.94
2022-11-08T10:07:22.283Z,99909.19
2022-11-08T10:10:06.483Z,99910.94
2022-11-08T10:12:54.135Z,99911.06
2022-11-08T10:15:46.404Z,99915.22
2022-11-08T10:18:18.534Z,99918.00
2022-11-08T10:21:41.875Z,99922.19
2022-11-08T10:24:16.876Z,99916.81
2022-11-08T10:26:46.811Z,99917.03
2022-11-08T10:29:36.452Z,99913.47
2022-11-08T10:32:14.821Z,99910.88
2022-11-08T10:34:52.131Z,99913.91
2022-11-08T10:37:19.508Z,99908.13
2022-11-08T10:39:55.249Z,99906.81
2022-11-08T10:42:33.436Z,99909.16
2022-11-08T10:45:00.144Z,99891.97
2022-11-08T10:47:29.724Z,99893.25
2022-11-08T10:50:00.942Z,99892.59
2022-11-08T10:52:44.169Z,99888.50
2022-11-08T10:55:26.105Z,99888.22
2022-11-08T10:57:52.885Z,99888.25
2022-11-08T11:00:22.041Z,99896.19
2022-11-08T11:02:58.532Z,99885.34
2022-11-08T11:05:51.269Z,99886.81
2022-11-08T11:08:19.033Z,99881.91
2022-11-08T11:10:47.921Z,99877.22
2022-11-08T11:13:29.251Z,99871.63
2022-11-08T11:16:04.585Z,99871.50
2022-11-08T11:18:38.156Z,99876.72
2022-11-08T11:21:12.047Z,99865.00
2022-11-08T11:24:05.816Z,99868.25
2022-11-08T11:26:35.096Z,99871.91
2022-11-08T11:29:06.641Z,99861.31
2022-11-08T11:31:41.182Z,99859.53
2022-11-08T11:34:16.494Z,99867.66
2022-11-08T11:36:52.418Z,99858.94
2022-11-08T11:39:27.355Z,99862.94
2022-11-08T11:42:17.719Z,99854.66
2022-11-08T11:45:02.321Z,99856.09
2022-11-08T11:47:47.718Z,99847.94
2022-11-08T11:50:27.917Z,99850.31
2022-11-08T11:52:58.942Z,99844.69
2022-11-08T11:56:00.150Z,99845.16
2022-11-08T11:59:00.662Z,99834.97
2022-11-08T12:01:33.144Z,99839.63
2022-11-08T12:03:59.455Z,99840.34
2022-11-08T12:07:21.564Z,99835.09
2022-11-08T12:09:59.662Z,99826.19
2022-11-08T12:12:47.806Z,99831.50
2022-11-08T12:15:23.005Z,99832.63
2022-11-08T12:18:04.833Z,99838.50
2022-11-08T12:20:57.276Z,99827.09
2022-11-08T12:23:31.519Z,99817.97
2022-11-08T12:26:02.495Z,99814.91
2022-11-08T12:28:45.817Z,99810.03
2022-11-08T12:31:30.031Z,99813.69
2022-11-08T12:34:22.745Z,99815.56
2022-11-08T12:37:14.227Z,99812.59
2022-11-08T12:39:45.747Z,99799.50
2022-11-08T12:42:14.992Z,99796.38
2022-11-08T12:45:17.360Z,99785.78
2022-11-08T12:47:50.669Z,99780.44
2022-11-08T12:50:38.150Z,99779.41
2022-11-08T12:53:31.552Z,99772.19
2022-11-08T12:55:58.744Z,99772.84
2022-11-08T12:58:41.471Z,99768.38
2022-11-08T13:01:13.294Z,99767.41
2022-11-08T13:03:51.756Z,99762.38
2022-11-08T13:06:29.841Z,99759.66
2022-11-08T13:09:16.409Z,99765.00
2022-11-08T13:11:57.829Z,99768.38
2022-11-08T13:14:25.667Z,99773.09
2022-11-08T13:17:18.400Z,99770.50
2022-11-08T13:19:47.791Z,99770.50
2022-11-08T13:22:29.546Z,99768.16
2022-11-08T13:24:59.284Z,99770.13
2022-11-08T13:27:46.298Z,99764.38
2022-11-08T13:30:15.617Z,99750.50
2022-11-08T13:33:15.016Z,99757.38
2022-11-08T13:36:04.250Z,99758.59
2022-11-08T13:38:36.696Z,99755.50
2022-11-08T13:41:22.465Z,99756.69
2022-11-08T13:43:50.224Z,99754.31
2022-11-08T13:46:29.619Z,99755.09
2022-11-08T13:49:00.946Z,99755.88
2022-11-08T13:51:35.554Z,99755.44
2022-11-08T13:54:01.928Z,99753.78
2022-11-08T13:56:42.168Z,99752.47
2022-11-08T13:59:30.295Z,99758.59
2022-11-08T14:02:03.593Z,99749.53
2022-11-08T14:04:31.215Z,99735.22
2022-11-08T14:07:09.783Z,99747.81
2022-11-08T14:09:54.956Z,99740.66
2022-11-08T14:12:47.672Z,99729.66
2022-11-08T14:15:39.157Z,99724.47
2022-11-08T14:18:07.247Z,99731.53
2022-11-08T14:20:38.247Z,99724.63
2022-11-08T14:23:21.029Z,99719.50
2022-11-08T14:25:58.134Z,99722.81
2022-11-08T14:28:35.339Z,99725.09
2022-11-08T14:31:04.510Z,99724.69
2022-11-08T14:33:33.137Z,99716.38
2022-11-08T14:36:02.349Z,99721.09
2022-11-08T14:38:33.998Z,99710.19
2022-11-08T14:41:03.048Z,99714.00
2022-11-08T14:43:30.274Z,99715.75
2022-11-08T14:45:58.120Z,99714.72
2022-11-08T14:48:28.306Z,99720.06
2022-11-08T14:51:02.211Z,99712.13
2022-11-08T14:53:31.598Z,99715.63
2022-11-08T14:56:08.324Z,99709.16
2022-11-08T14:58:34.706Z,99709.13
2022-11-08T15:01:03.038Z,99713.91
2022-11-08T15:03:31.835Z,99700.91
2022-11-08T15:06:00.894Z,99706.16
2022-11-08T15:08:34.946Z,99696.03
2022-11-08T15:11:07.950Z,99708.81
2022-11-08T15:13:50.374Z,99704.50
2022-11-08T15:16:18.085Z,99709.53
2022-11-08T15:18:45.215Z,99703.66
2022-11-08T15:21:11.630Z,99699.78
2022-11-08T15:23:53.324Z,99703.72
2022-11-08T15:26:34.177Z,99694.75
2022-11-08T15:29:19.744Z,99709.75
2022-11-08T15:31:55.636Z,99703.84
2022-11-08T15:34:37.159Z,99711.59
2022-11-08T15:37:19.155Z,99709.81
2022-11-08T15:39:46.015Z,99704.69
2022-11-08T15:42:17.203Z,99708.66
2022-11-08T15:45:00.025Z,99709.34
2022-11-08T15:47:41.364Z,99713.63
2022-11-08T15:50:16.298Z,99708.78
2022-11-08T15:52:43.366Z,99713.97
2022-11-08T15:55:14.596Z,99709.91
2022-11-08T15:57:42.787Z,99706.19
2022-11-08T16:00:22.154Z,99698.91
2022-11-08T16:02:48.669Z,99702.22
2022-11-08T16:05:19.033Z,99693.34
2022-11-08T16:07:46.477Z,99689.19
2022-11-08T16:10:14.382Z,99682.31
2022-11-08T16:12:43.512Z,99679.59
2022-11-08T16:15:22.001Z,99674.59
2022-11-08T16:17:48.479Z,99684.16
2022-11-08T16:20:20.038Z,99670.91
2022-11-08T16:22:46.450Z,99674.03
2022-11-08T16:25:12.959Z,99681.53
2022-11-08T16:27:39.536Z,99690.25
2022-11-08T16:30:14.429Z,99691.06
2022-11-08T16:32:41.436Z,99703.06
2022-11-08T16:35:08.753Z,99699.44
2022-11-08T16:37:36.092Z,99698.28
2022-11-08T16:40:02.864Z,99689.75
2022-11-08T16:42:29.288Z,99682.84
2022-11-08T16:44:55.622Z,99680.81
2022-11-08T16:47:21.991Z,99680.97
2022-11-08T16:49:51.298Z,99672.28
2022-11-08T16:52:17.955Z,99673.81
2022-11-08T16:54:44.279Z,99680.84
2022-11-08T16:59:56.988Z,99679.16
2022-11-08T17:02:32.983Z,99689.81
2022-11-08T17:04:59.356Z,99681.44
2022-11-08T17:07:27.547Z,99686.91
2022-11-08T17:09:54.266Z,99690.59
2022-11-08T17:12:21.394Z,99686.91
2022-11-08T17:14:47.775Z,99697.72
2022-11-08T17:17:15.301Z,99698.66
2022-11-08T17:19:41.803Z,99694.59
2022-11-08T17:22:09.729Z,99697.25
2022-11-08T17:24:36.074Z,99707.34
2022-11-08T17:27:02.495Z,99710.41
2022-11-08T17:29:28.829Z,99700.28
2022-11-08T17:31:55.257Z,99704.00
2022-11-08T17:34:21.667Z,99705.19
2022-11-08T17:36:48.080Z,99707.53
2022-11-08T17:39:14.483Z,99711.63
2022-11-08T17:41:40.903Z,99709.13
2022-11-08T17:44:07.252Z,99710.47
2022-11-08T17:46:33.657Z,99717.59
2022-11-08T17:49:00.019Z,99722.00
2022-11-08T17:51:26.484Z,99725.81
2022-11-08T17:53:52.866Z,99723.59
2022-11-08T17:56:19.643Z,99720.63
2022-11-08T17:58:46.086Z,99722.75
2022-11-08T18:01:12.604Z,99710.81
2022-11-08T18:03:39.044Z,99717.56
2022-11-08T18:06:11.222Z,99716.50
2022-11-08T18:08:37.912Z,99714.84
2022-11-08T18:11:05.095Z,99731.78
2022-11-08T18:13:31.888Z,99731.09
2022-11-08T18:16:08.199Z,99726.91
2022-11-08T18:18:34.718Z,99713.53
2022-11-08T18:21:01.100Z,99721.78
2022-11-08T18:23:27.404Z,99719.84
2022-11-08T18:25:56.108Z,99712.72
2022-11-08T18:28:23.456Z,99716.44
2022-11-08T18:30:50.456Z,99706.16
2022-11-08T18:33:18.419Z,99695.91
2022-11-08T18:35:45.558Z,99691.34
2022-11-08T18:38:13.005Z,99692.88
2022-11-08T18:40:39.940Z,99700.25
2022-11-08T18:43:06.911Z,99710.81
2022-11-08T18:45:33.290Z,99707.72
2022-11-08T18:47:59.675Z,99708.41
2022-11-08T18:50:26.145Z,99709.53
2022-11-08T18:52:52.468Z,99720.84
2022-11-08T18:55:19.085Z,99722.41
2022-11-08T18:57:46.050Z,99715.50
2022-11-08T19:00:12.770Z,99722.00
2022-11-08T19:02:39.439Z,99708.97
2022-11-08T19:05:05.994Z,99716.50
2022-11-08T19:07:32.392Z,99706.19
2022-11-08T19:09:58.744Z,99709.06
2022-11-08T19:12:27.210Z,99708.47
2022-11-08T19:14:53.609Z,99702.13
2022-11-08T19:17:19.956Z,99705.72
2022-11-08T19:19:46.336Z,99697.50
2022-11-08T19:22:12.669Z,99688.16
2022-11-08T19:24:39.040Z,99684.34
2022-11-08T19:27:06.087Z,99679.69
2022-11-08T19:29:32.693Z,99689.59
2022-11-08T19:31:59.596Z,99681.94
2022-11-08T19:34:26.056Z,99681.38
2022-11-08T19:36:55.784Z,99675.88
2022-11-08T19:39:23.915Z,99689.09
2022-11-08T19:41:50.350Z,99685.84
2022-11-08T19:44:16.772Z,99684.09
2022-11-08T19:46:43.206Z,99687.97
2022-11-08T19:49:10.318Z,99691.19
2022-11-08T19:51:36.684Z,99701.84
2022-11-08T19:54:06.321Z,99696.41
2022-11-08T19:59:21.094Z,99707.78
2022-11-08T20:01:47.559Z,99700.91
2022-11-08T20:04:14.790Z,99710.38
2022-11-08T20:06:41.616Z,99703.44
2022-11-08T20:09:09.392Z,99703.22
2022-11-08T20:11:37.597Z,99704.81
2022-11-08T20:14:05.160Z,99706.69
2022-11-08T20:16:41.462Z,99712.16
2022-11-08T20:19:10.629Z,99709.56
2022-11-08T20:21:42.460Z,99705.38
2022-11-08T20:24:10.886Z,99706.28
2022-11-08T20:26:38.512Z,99715.81
2022-11-08T20:29:07.164Z,99720.06
2022-11-08T20:31:34.025Z,99724.03
2022-11-08T20:34:01.475Z,99725.00
2022-11-08T20:36:31.765Z,99732.41
2022-11-08T20:39:06.571Z,99731.53
2022-11-08T20:41:35.431Z,99732.53
2022-11-08T20:44:01.891Z,99738.47
2022-11-08T20:46:28.820Z,99730.28
2022-11-08T20:49:00.175Z,99731.59
2022-11-08T20:51:27.696Z,99742.50
2022-11-08T20:53:55.522Z,99750.22
2022-11-08T20:56:23.069Z,99752.84
2022-11-08T20:58:51.077Z,99749.00
2022-11-08T21:01:22.337Z,99749.66
2022-11-08T21:03:49.380Z,99750.78
2022-11-08T21:06:18.583Z,99747.88
2022-11-08T21:09:08.263Z,99753.53
2022-11-08T21:11:34.362Z,99748.38
2022-11-08T21:14:01.604Z,99741.31
2022-11-08T21:16:33.080Z,99740.88
2022-11-08T21:19:01.877Z,99737.59
2022-11-08T21:21:28.676Z,99743.03
2022-11-08T21:23:55.191Z,99739.44
2022-11-08T21:26:22.131Z,99732.34
2022-11-08T21:28:48.670Z,99733.53
2022-11-08T21:31:15.927Z,99726.09
2022-11-08T21:33:42.559Z,99729.81
2022-11-08T21:36:09.453Z,99724.84
2022-11-08T21:38:39.432Z,99724.25
2022-11-08T21:41:07.980Z,99715.50
2022-11-08T21:43:39.331Z,99717.75
2022-11-08T21:46:32.224Z,99712.50
2022-11-08T21:49:00.492Z,99717.69
2022-11-08T21:51:29.228Z,99707.84
2022-11-08T21:53:57.252Z,99712.97
2022-11-08T21:56:25.315Z,99718.31
2022-11-08T21:58:51.916Z,99723.63
2022-11-08T22:01:18.531Z,99723.56
2022-11-08T22:03:45.857Z,99732.25
2022-11-08T22:06:12.230Z,99731.25
2022-11-08T22:08:38.568Z,99727.53
2022-11-08T22:11:05.267Z,99724.28
2022-11-08T22:13:32.171Z,99718.78
2022-11-08T22:15:58.585Z,99718.91
2022-11-08T22:18:36.776Z,99729.19
2022-11-08T22:21:27.888Z,99721.06
2022-11-08T22:23:54.252Z,99739.53
2022-11-08T22:26:20.611Z,99734.88
2022-11-08T22:28:47.034Z,99745.66
2022-11-08T22:31:13.451Z,99746.88
2022-11-08T22:33:39.871Z,99746.50
2022-11-08T22:36:06.560Z,99755.41
2022-11-08T22:38:32.914Z,99749.88
2022-11-08T22:40:59.270Z,99749.13
2022-11-08T22:43:25.646Z,99738.28
2022-11-08T22:45:51.971Z,99732.53
2022-11-08T22:48:18.664Z,99731.53
2022-11-08T22:50:45.162Z,99728.00
2022-11-08T22:53:11.537Z,99724.84
2022-11-08T22:55:37.887Z,99729.06
2022-11-08T22:58:04.310Z,99734.53
2022-11-08T23:00:30.728Z,99741.56
2022-11-08T23:02:57.244Z,99742.97
2022-11-08T23:05:23.880Z,99742.75
2022-11-08T23:07:50.254Z,99743.34
2022-11-08T23:10:16.712Z,99740.69
2022-11-08T23:13:01.648Z,99731.97
2022-11-08T23:15:53.560Z,99729.38
2022-11-08T23:18:23.505Z,99736.44
2022-11-08T23:21:13.150Z,99723.19
2022-11-08T23:23:59.887Z,99727.31
2022-11-08T23:26:44.683Z,99729.25
2022-11-08T23:29:29.876Z,99733.22
2022-11-08T23:31:56.698Z,99740.13
2022-11-08T23:34:23.073Z,99741.41
2022-11-08T23:36:49.428Z,99757.81
2022-11-08T23:39:15.769Z,99753.56
2022-11-08T23:42:00.557Z,99759.03
2022-11-08T23:44:27.689Z,99759.88
2022-11-08T23:46:56.873Z,99744.09
2022-11-08T23:49:23.634Z,99746.28
2022-11-08T23:51:50.507Z,99741.84
2022-11-08T23:54:16.893Z,99731.50
2022-11-08T23:56:43.750Z,99730.91
2022-11-08T23:59:11.005Z,99720.56
